Aviation Digital Data Service (ADDS)

Output produced by METARs form (0345 UTC 19 August 2019)
found at http://www.aviationweather.gov/metar/data/
 
Forecast for: KALO (WATERLOO , IA, US)
Text: KALO 182335Z 1900/1924 34006KT P6SM SCT040
Forecast period: 0000 to 0800 UTC 19 August 2019
Forecast type: FROM: standard forecast or significant change
Winds: from the NNW (340 degrees) at 7 MPH (6 knots; 3.1 m/s)
Visibility: 6 or more miles 10+ km)
Ceiling: at least 12,000 feet AGL
Clouds: scattered clouds at 4000 feet AGL
Weather: no significant weather forecast for this period
Text: FM190800 VRB03KT P6SM SKC
Forecast period: 0800 to 1600 UTC 19 August 2019
Forecast type: FROM: standard forecast or significant change
Winds: variable direction winds at 3 MPH (3 knots; 1.5 m/s)
Visibility: 6 or more miles 10+ km)
Clouds: clear skies
Weather: no significant weather forecast for this period
Text: FM191600 14006KT P6SM FEW250
Forecast period: 1600 UTC 19 August 2019 to 0000 UTC 20 August 2019
Forecast type: FROM: standard forecast or significant change
Winds: from the SE (140 degrees) at 7 MPH (6 knots; 3.1 m/s)
Visibility: 6 or more miles 10+ km)
Ceiling: at least 12,000 feet AGL
Clouds: few clouds at 25000 feet AGL
Weather: no significant weather forecast for this period